Piedra, California
Current Conditions -  °F | °C
As of 9:29 AM on Sunday 23 Nov 2014 (Local Time) from KFAT Reporting Station
Overcast Overcast  
Wind Chill: 51°   Ceiling: 2300
Heat Index: 51°   Visibility: 9mi
Dew Point: 46°   Wind: 7mph
Humidity: 83%   Direction: 320°NW
Pressure: 30.33"   Gusts: NA
Location:  36.81°N, 119.38°W
Report Text: KFAT 231729Z 32006KT 9SM SCT013 OVC023 11/08 A3033 RMK AO2 T01060078
Loading
Personal Weather Stations






























Interactive Weather Map New forecast layout! Learn more

10-Day Weather Forecast

Advertisements
Track Severe Weather on mobile